createdAt,value
2016-08-31T00:00:25.454Z,36.98
2016-08-31T00:01:24.757Z,36.98
2016-08-31T00:02:25.516Z,36.88
2016-08-31T00:03:25.470Z,37.28
2016-08-31T00:04:24.774Z,37.26
2016-08-31T00:05:25.633Z,37.36
2016-08-31T00:06:25.495Z,37.36
2016-08-31T00:07:24.794Z,37.26
2016-08-31T00:08:24.800Z,37.38
2016-08-31T00:09:25.011Z,37.26
2016-08-31T00:10:26.626Z,37.38
2016-08-31T00:11:25.530Z,37.55
2016-08-31T00:12:24.834Z,37.57
2016-08-31T00:13:24.839Z,37.36
2016-08-31T00:14:24.848Z,37.48
2016-08-31T00:15:24.855Z,37.48
2016-08-31T00:16:24.861Z,37.75
2016-08-31T00:17:25.579Z,37.75
2016-08-31T00:18:24.875Z,37.75
2016-08-31T00:19:25.437Z,37.77
2016-08-31T00:20:25.599Z,37.65
2016-08-31T00:21:25.605Z,37.75
2016-08-31T00:22:24.906Z,37.87
2016-08-31T00:23:24.911Z,37.48
2016-08-31T00:24:25.627Z,37.85
2016-08-31T00:25:25.635Z,37.46
2016-08-31T00:26:25.649Z,37.55
2016-08-31T00:27:24.947Z,37.65
2016-08-31T00:28:25.659Z,38.04
2016-08-31T00:29:24.954Z,37.75
2016-08-31T00:30:25.674Z,37.75
2016-08-31T00:31:24.971Z,37.55
2016-08-31T00:32:24.977Z,37.65
2016-08-31T00:33:24.989Z,38.04
2016-08-31T00:34:25.008Z,38.04
2016-08-31T00:35:25.715Z,37.55
2016-08-31T00:36:25.008Z,38.04
2016-08-31T00:37:25.723Z,37.65
2016-08-31T00:38:25.732Z,38.13
2016-08-31T00:39:25.738Z,37.94
2016-08-31T00:40:25.038Z,38.04
2016-08-31T00:41:26.006Z,37.85
2016-08-31T00:42:25.053Z,37.94
2016-08-31T00:43:25.769Z,37.85
2016-08-31T00:44:25.066Z,37.87
2016-08-31T00:45:25.782Z,37.75
2016-08-31T00:46:25.791Z,37.85
2016-08-31T00:47:25.796Z,38.04
2016-08-31T00:48:25.096Z,38.04
2016-08-31T00:49:25.111Z,38.04
2016-08-31T00:50:25.819Z,38.04
2016-08-31T00:51:25.116Z,37.75
2016-08-31T00:52:26.277Z,37.94
2016-08-31T00:53:25.130Z,37.94
2016-08-31T00:54:25.191Z,38.06
2016-08-31T00:55:25.855Z,37.85
2016-08-31T00:56:25.864Z,38.04
2016-08-31T00:57:25.871Z,38.04
2016-08-31T00:58:25.176Z,37.85
2016-08-31T00:59:25.886Z,37.85
2016-08-31T01:00:25.894Z,37.87
2016-08-31T01:01:25.907Z,37.55
2016-08-31T01:02:25.199Z,37.85
2016-08-31T01:03:27.063Z,38.06
2016-08-31T01:04:25.213Z,37.75
2016-08-31T01:05:25.972Z,37.94
2016-08-31T01:06:25.226Z,37.75
2016-08-31T01:07:25.235Z,37.85
2016-08-31T01:08:25.952Z,37.46
2016-08-31T01:09:25.957Z,38.04
2016-08-31T01:10:25.259Z,38.04
2016-08-31T01:11:25.971Z,37.85
2016-08-31T01:12:25.979Z,37.65
2016-08-31T01:13:25.987Z,37.75
2016-08-31T01:14:25.994Z,37.46
2016-08-31T01:15:25.999Z,37.85
2016-08-31T01:16:27.157Z,37.85
2016-08-31T01:17:25.308Z,37.94
2016-08-31T01:18:25.316Z,37.75
2016-08-31T01:19:25.327Z,38.04
2016-08-31T01:20:26.045Z,37.85
2016-08-31T01:21:26.043Z,37.94
2016-08-31T01:22:25.341Z,37.75
2016-08-31T01:23:26.059Z,38.04
2016-08-31T01:24:26.066Z,37.94
2016-08-31T01:25:25.370Z,37.46
2016-08-31T01:26:26.078Z,37.65
2016-08-31T01:27:26.679Z,37.75
2016-08-31T01:28:25.387Z,39.09
2016-08-31T01:29:25.390Z,39.16
2016-08-31T01:30:26.108Z,38.48
2016-08-31T01:31:26.110Z,38.21
2016-08-31T01:32:25.406Z,37.92
2016-08-31T01:33:25.416Z,38.02
2016-08-31T01:34:26.127Z,38.04
2016-08-31T01:35:25.426Z,38.12
2016-08-31T01:36:25.535Z,37.55
2016-08-31T01:37:26.146Z,37.85
2016-08-31T01:38:27.130Z,37.82
2016-08-31T01:39:26.159Z,37.92
2016-08-31T01:40:25.465Z,37.85
2016-08-31T01:41:26.175Z,37.92
2016-08-31T01:42:25.473Z,37.85
2016-08-31T01:43:26.188Z,37.85
2016-08-31T01:44:26.195Z,38.02
2016-08-31T01:45:26.197Z,37.73
2016-08-31T01:46:26.206Z,38.02
2016-08-31T01:47:26.563Z,37.73
2016-08-31T01:48:26.220Z,37.82
2016-08-31T01:49:25.567Z,37.73
2016-08-31T01:50:26.230Z,37.65
2016-08-31T01:51:26.238Z,37.46
2016-08-31T01:52:26.244Z,37.26
2016-08-31T01:53:25.542Z,37.36
2016-08-31T01:54:26.258Z,37.26
2016-08-31T01:55:40.435Z,36.98
2016-08-31T01:56:25.565Z,37.17
2016-08-31T01:57:26.278Z,36.88
2016-08-31T01:58:27.034Z,36.78
2016-08-31T01:59:25.586Z,36.78
2016-08-31T02:00:26.296Z,36.88
2016-08-31T02:01:26.321Z,36.88
2016-08-31T02:02:26.311Z,36.78
2016-08-31T02:03:26.317Z,36.98
2016-08-31T02:04:26.335Z,36.88
2016-08-31T02:05:26.334Z,37.17
2016-08-31T02:06:26.389Z,37.36
2016-08-31T02:07:25.638Z,37.17
2016-08-31T02:08:25.695Z,37.26
2016-08-31T02:09:25.654Z,36.98
2016-08-31T02:10:25.665Z,37.36
2016-08-31T02:11:26.771Z,37.36
2016-08-31T02:12:25.730Z,37.17
2016-08-31T02:13:25.681Z,37.36
2016-08-31T02:14:26.393Z,37.07
2016-08-31T02:15:25.746Z,37.26
2016-08-31T02:16:26.411Z,37.46
2016-08-31T02:17:25.711Z,37.36
2016-08-31T02:18:25.715Z,37.36
2016-08-31T02:19:26.431Z,37.26
2016-08-31T02:20:25.729Z,37.17
2016-08-31T02:21:26.445Z,37.36
2016-08-31T02:22:25.747Z,37.36
2016-08-31T02:23:26.461Z,37.07
2016-08-31T02:24:26.462Z,36.98
2016-08-31T02:25:26.695Z,36.98
2016-08-31T02:26:25.777Z,37.17
2016-08-31T02:27:25.782Z,36.98
2016-08-31T02:28:26.492Z,37.26
2016-08-31T02:29:25.792Z,37.36
2016-08-31T02:30:26.505Z,37.26
2016-08-31T02:31:26.513Z,37.17
2016-08-31T02:32:25.814Z,37.36
2016-08-31T02:33:25.833Z,37.36
2016-08-31T02:34:25.830Z,37.46
2016-08-31T02:35:25.843Z,37.17
2016-08-31T02:36:26.548Z,37.36
2016-08-31T02:37:25.849Z,37.46
2016-08-31T02:38:25.853Z,37.46
2016-08-31T02:39:26.573Z,37.07
2016-08-31T02:40:25.868Z,36.78
2016-08-31T02:41:25.876Z,36.78
2016-08-31T02:42:26.592Z,36.88
2016-08-31T02:43:26.600Z,36.78
2016-08-31T02:44:25.899Z,36.78
2016-08-31T02:45:26.616Z,36.88
2016-08-31T02:46:26.623Z,36.78
2016-08-31T02:47:25.970Z,36.58
2016-08-31T02:48:26.634Z,36.58
2016-08-31T02:49:26.639Z,36.68
2016-08-31T02:50:26.651Z,36.49
2016-08-31T02:51:26.653Z,36.88
2016-08-31T02:52:25.958Z,36.78
2016-08-31T02:53:26.672Z,36.88
2016-08-31T02:54:26.674Z,36.78
2016-08-31T02:55:26.684Z,36.68
2016-08-31T02:56:26.691Z,36.88
2016-08-31T02:57:26.702Z,36.68
2016-08-31T02:58:26.706Z,36.78
2016-08-31T02:59:26.713Z,36.78
2016-08-31T03:00:26.723Z,36.88
2016-08-31T03:01:26.730Z,36.88
2016-08-31T03:02:26.735Z,36.88
2016-08-31T03:03:26.744Z,36.98
2016-08-31T03:04:27.151Z,36.88
2016-08-31T03:05:26.051Z,37.07
2016-08-31T03:06:26.772Z,36.88
2016-08-31T03:07:26.067Z,36.58
2016-08-31T03:08:26.121Z,37.17
2016-08-31T03:09:26.786Z,36.78
2016-08-31T03:10:26.797Z,37.26
2016-08-31T03:11:26.096Z,37.17
2016-08-31T03:12:26.109Z,37.15
2016-08-31T03:13:26.819Z,37.26
2016-08-31T03:14:26.826Z,37.26
2016-08-31T03:15:26.126Z,37.36
2016-08-31T03:16:26.838Z,37.24
2016-08-31T03:17:27.347Z,37.26
2016-08-31T03:18:26.147Z,37.34
2016-08-31T03:19:26.155Z,37.26
2016-08-31T03:20:26.869Z,37.44
2016-08-31T03:21:26.877Z,37.46
2016-08-31T03:22:26.901Z,37.34
2016-08-31T03:23:26.235Z,37.55
2016-08-31T03:24:26.899Z,36.98
2016-08-31T03:25:26.202Z,37.44
2016-08-31T03:26:26.208Z,37.15
2016-08-31T03:27:26.922Z,37.34
2016-08-31T03:28:27.075Z,37.17
2016-08-31T03:29:26.937Z,37.34
2016-08-31T03:30:26.943Z,36.96
2016-08-31T03:31:26.245Z,37.63
2016-08-31T03:32:26.251Z,37.05
2016-08-31T03:33:26.258Z,36.96
2016-08-31T03:34:26.269Z,37.44
2016-08-31T03:35:26.981Z,37.24
2016-08-31T03:36:26.279Z,37.34
2016-08-31T03:37:26.290Z,37.44
2016-08-31T03:38:26.296Z,37.73
2016-08-31T03:39:27.729Z,37.24
2016-08-31T03:40:27.020Z,37.44
2016-08-31T03:41:26.325Z,37.82
2016-08-31T03:42:26.329Z,37.44
2016-08-31T03:43:27.039Z,37.82
2016-08-31T03:44:27.048Z,37.34
2016-08-31T03:45:27.065Z,37.54
2016-08-31T03:46:26.356Z,37.44
2016-08-31T03:47:27.070Z,37.63
2016-08-31T03:48:27.079Z,37.63
2016-08-31T03:49:26.379Z,37.54
2016-08-31T03:50:26.385Z,37.82
2016-08-31T03:51:26.395Z,37.73
2016-08-31T03:52:26.401Z,37.82
2016-08-31T03:53:26.457Z,37.73
2016-08-31T03:54:26.416Z,37.63
2016-08-31T03:55:26.424Z,37.63
2016-08-31T03:56:27.135Z,37.73
2016-08-31T03:57:26.444Z,37.63
2016-08-31T03:58:27.153Z,37.82
2016-08-31T03:59:26.854Z,37.73
2016-08-31T04:00:26.459Z,37.63
2016-08-31T04:01:27.179Z,37.63
2016-08-31T04:02:27.179Z,37.73
2016-08-31T04:03:26.483Z,37.82
2016-08-31T04:04:26.490Z,37.73
2016-08-31T04:05:27.203Z,37.92
2016-08-31T04:06:26.518Z,37.92
2016-08-31T04:07:27.222Z,37.82
2016-08-31T04:08:27.226Z,37.92
2016-08-31T04:09:27.285Z,37.73
2016-08-31T04:10:27.588Z,37.82
2016-08-31T04:11:26.591Z,37.82
2016-08-31T04:12:27.457Z,37.82
2016-08-31T04:13:27.262Z,37.82
2016-08-31T04:14:27.272Z,37.92
2016-08-31T04:15:26.579Z,37.82
2016-08-31T04:16:27.282Z,37.92
2016-08-31T04:17:26.634Z,37.92
2016-08-31T04:18:27.302Z,37.82
2016-08-31T04:19:26.599Z,37.92
2016-08-31T04:20:26.606Z,37.82
2016-08-31T04:21:28.188Z,37.63
2016-08-31T04:22:27.327Z,37.73
2016-08-31T04:23:27.987Z,38.02
2016-08-31T04:24:27.344Z,37.73
2016-08-31T04:25:26.642Z,37.73
2016-08-31T04:26:27.362Z,37.63
2016-08-31T04:27:27.367Z,37.54
2016-08-31T04:28:26.663Z,37.73
2016-08-31T04:29:27.381Z,37.63
2016-08-31T04:30:26.779Z,37.63
2016-08-31T04:31:27.395Z,37.73
2016-08-31T04:32:28.379Z,37.63
2016-08-31T04:33:26.704Z,37.73
2016-08-31T04:34:28.418Z,37.92
2016-08-31T04:35:26.719Z,37.92
2016-08-31T04:36:27.431Z,37.73
2016-08-31T04:37:27.444Z,38.02
2016-08-31T04:38:26.742Z,38.02
2016-08-31T04:39:27.452Z,38.02
2016-08-31T04:40:26.754Z,38.02
2016-08-31T04:41:28.122Z,37.82
2016-08-31T04:42:26.780Z,37.82
2016-08-31T04:43:27.283Z,38.02
2016-08-31T04:44:27.490Z,37.82
2016-08-31T04:45:27.496Z,38.12
2016-08-31T04:46:27.505Z,37.92
2016-08-31T04:47:26.803Z,38.21
2016-08-31T04:48:27.518Z,38.02
2016-08-31T04:49:27.528Z,38.02
2016-08-31T04:50:27.534Z,37.92
2016-08-31T04:51:27.541Z,37.92
2016-08-31T04:52:27.992Z,38.02
2016-08-31T04:53:27.557Z,38.02
2016-08-31T04:54:27.707Z,37.92
2016-08-31T04:55:26.864Z,37.92
2016-08-31T04:56:27.579Z,37.92
2016-08-31T04:57:26.878Z,37.92
2016-08-31T04:58:26.885Z,38.02
2016-08-31T04:59:26.892Z,38.02
2016-08-31T05:00:27.609Z,37.92
2016-08-31T05:01:26.909Z,38.02
2016-08-31T05:02:27.624Z,38.02
2016-08-31T05:03:28.398Z,38.02
2016-08-31T05:04:27.637Z,38.31
2016-08-31T05:05:26.940Z,38.21
2016-08-31T05:06:26.944Z,38.02
2016-08-31T05:07:27.662Z,37.92
2016-08-31T05:08:26.961Z,38.02
2016-08-31T05:09:27.672Z,38.12
2016-08-31T05:10:26.973Z,38.21
2016-08-31T05:11:27.737Z,37.92
2016-08-31T05:12:26.990Z,38.12
2016-08-31T05:13:27.706Z,38.02
2016-08-31T05:14:27.311Z,38.02
2016-08-31T05:15:27.061Z,38.02
2016-08-31T05:16:27.725Z,38.12
2016-08-31T05:17:27.730Z,37.92
2016-08-31T05:18:27.032Z,37.63
2016-08-31T05:19:27.042Z,37.92
2016-08-31T05:20:27.049Z,38.12
2016-08-31T05:21:27.813Z,38.02
2016-08-31T05:22:27.060Z,37.73
2016-08-31T05:23:27.069Z,38.02
2016-08-31T05:24:27.784Z,37.82
2016-08-31T05:25:27.685Z,37.92
2016-08-31T05:26:27.800Z,37.82
2016-08-31T05:27:27.102Z,38.02
2016-08-31T05:28:27.814Z,37.82
2016-08-31T05:29:27.113Z,37.92
2016-08-31T05:30:27.123Z,38.12
2016-08-31T05:31:27.132Z,37.73
2016-08-31T05:32:27.843Z,37.73
2016-08-31T05:33:27.196Z,37.92
2016-08-31T05:34:27.858Z,37.82
2016-08-31T05:35:27.866Z,37.82
2016-08-31T05:36:28.288Z,38.02
2016-08-31T05:37:27.880Z,37.54
2016-08-31T05:38:28.048Z,37.54
2016-08-31T05:39:27.189Z,37.92
2016-08-31T05:40:27.218Z,37.73
2016-08-31T05:41:27.205Z,38.02
2016-08-31T05:42:27.919Z,38.02
2016-08-31T05:43:27.924Z,37.63
2016-08-31T05:44:27.942Z,38.02
2016-08-31T05:45:27.961Z,37.73
2016-08-31T05:46:27.244Z,38.02
2016-08-31T05:47:27.957Z,37.73
2016-08-31T05:48:27.971Z,37.85
2016-08-31T05:49:29.085Z,37.82
2016-08-31T05:50:27.980Z,38.02
2016-08-31T05:51:27.281Z,37.75
2016-08-31T05:52:27.994Z,37.85
2016-08-31T05:53:28.001Z,37.82
2016-08-31T05:54:27.303Z,37.82
2016-08-31T05:55:28.111Z,37.65
2016-08-31T05:56:28.029Z,37.75
2016-08-31T05:57:28.030Z,37.65
2016-08-31T05:58:28.046Z,37.85
2016-08-31T05:59:27.342Z,37.65
2016-08-31T06:00:29.182Z,37.75
2016-08-31T06:01:28.061Z,37.65
2016-08-31T06:03:27.370Z,37.75
2016-08-31T06:04:27.376Z,37.65
2016-08-31T06:05:28.091Z,37.75
2016-08-31T06:06:28.098Z,37.65
2016-08-31T06:07:28.104Z,37.65
2016-08-31T06:08:28.114Z,37.75
2016-08-31T06:09:27.414Z,37.65
2016-08-31T06:10:28.136Z,37.94
2016-08-31T06:11:28.943Z,37.46
2016-08-31T06:12:28.145Z,37.85
2016-08-31T06:13:28.150Z,37.65
2016-08-31T06:14:28.157Z,37.85
2016-08-31T06:15:28.220Z,37.65
2016-08-31T06:16:27.518Z,37.75
2016-08-31T06:17:28.182Z,37.65
2016-08-31T06:18:28.189Z,37.85
2016-08-31T06:19:27.490Z,37.85
2016-08-31T06:20:28.202Z,37.65
2016-08-31T06:21:27.557Z,37.94
2016-08-31T06:22:29.321Z,37.65
2016-08-31T06:23:27.520Z,37.75
2016-08-31T06:24:27.781Z,37.94
2016-08-31T06:25:28.243Z,37.65
2016-08-31T06:26:28.250Z,37.85
2016-08-31T06:27:27.553Z,37.87
2016-08-31T06:28:27.561Z,37.85
2016-08-31T06:29:28.274Z,37.77
2016-08-31T06:30:27.577Z,37.85
2016-08-31T06:31:27.585Z,37.67
2016-08-31T06:32:28.300Z,37.77
2016-08-31T06:33:28.749Z,37.67
2016-08-31T06:34:27.612Z,37.48
2016-08-31T06:35:27.653Z,37.19
2016-08-31T06:36:27.621Z,37.28
2016-08-31T06:37:28.335Z,37.28
2016-08-31T06:38:28.401Z,36.62
2016-08-31T06:39:28.353Z,36.91
2016-08-31T06:40:28.362Z,36.82
2016-08-31T06:41:27.664Z,36.62
2016-08-31T06:42:28.385Z,36.43
2016-08-31T06:43:28.385Z,35.77
2016-08-31T06:44:28.240Z,36.25
2016-08-31T06:45:27.703Z,36.16
2016-08-31T06:46:27.707Z,35.96
2016-08-31T06:47:28.432Z,35.69
2016-08-31T06:48:28.833Z,35.69
2016-08-31T06:49:28.441Z,35.49
2016-08-31T06:50:28.454Z,35.3
2016-08-31T06:51:27.762Z,35.11
2016-08-31T06:52:28.472Z,35.3
2016-08-31T06:53:27.774Z,35.21
2016-08-31T06:54:27.791Z,34.91
2016-08-31T06:55:27.797Z,34.81
2016-08-31T06:56:27.807Z,35.03
2016-08-31T06:57:29.640Z,34.93
2016-08-31T06:58:27.836Z,35.21
2016-08-31T06:59:28.289Z,35.49
2016-08-31T07:00:28.665Z,36.08
2016-08-31T07:01:28.617Z,36.16
2016-08-31T07:02:27.879Z,35.96
2016-08-31T07:03:27.875Z,36.35
2016-08-31T07:04:27.893Z,36.64
2016-08-31T07:05:28.607Z,36.54
2016-08-31T07:06:27.903Z,36.64
2016-08-31T07:07:28.620Z,36.64
2016-08-31T07:08:29.249Z,36.54
2016-08-31T07:09:28.637Z,36.44
2016-08-31T07:10:28.929Z,36.52
2016-08-31T07:11:28.651Z,36.44
2016-08-31T07:12:27.953Z,36.62
2016-08-31T07:13:27.975Z,36.83
2016-08-31T07:14:28.678Z,36.93
2016-08-31T07:15:28.740Z,36.72
2016-08-31T07:16:27.987Z,36.91
2016-08-31T07:17:28.701Z,37.01
2016-08-31T07:18:28.708Z,36.82
2016-08-31T07:19:28.028Z,37.01
2016-08-31T07:20:28.725Z,36.91
2016-08-31T07:21:28.279Z,37.01
2016-08-31T07:22:28.743Z,36.52
2016-08-31T07:23:28.042Z,37.11
2016-08-31T07:24:28.053Z,37.21
2016-08-31T07:25:28.766Z,36.82
2016-08-31T07:26:28.770Z,37.3
2016-08-31T07:27:28.077Z,37.4
2016-08-31T07:28:28.087Z,37.3
2016-08-31T07:29:28.806Z,37.49
2016-08-31T07:30:29.220Z,37.49
2016-08-31T07:31:28.106Z,37.3
2016-08-31T07:32:28.824Z,37.59
2016-08-31T07:33:28.836Z,37.49
2016-08-31T07:34:29.889Z,37.79
2016-08-31T07:35:28.138Z,37.69
2016-08-31T07:36:28.144Z,37.88
2016-08-31T07:37:28.859Z,38.37
2016-08-31T07:38:28.867Z,38.27
2016-08-31T07:39:28.878Z,38.37
2016-08-31T07:40:28.178Z,38.66
2016-08-31T07:41:28.184Z,38.56
2016-08-31T07:42:28.195Z,38.37
2016-08-31T07:43:28.924Z,38.17
2016-08-31T07:44:28.207Z,37.98
2016-08-31T07:45:30.075Z,38.17
2016-08-31T07:46:28.946Z,37.98
2016-08-31T07:47:28.233Z,37.88
2016-08-31T07:48:28.242Z,38.07
2016-08-31T07:49:28.247Z,37.98
2016-08-31T07:50:29.011Z,38.07
2016-08-31T07:51:28.314Z,37.98
2016-08-31T07:52:28.273Z,37.88
2016-08-31T07:53:28.284Z,37.79
2016-08-31T07:54:29.970Z,37.79
2016-08-31T07:55:28.297Z,37.79
2016-08-31T07:56:29.413Z,37.88
2016-08-31T07:57:28.319Z,37.98
2016-08-31T07:58:29.184Z,37.79
2016-08-31T07:59:28.328Z,37.96
2016-08-31T08:00:29.042Z,37.98
2016-08-31T08:01:29.053Z,37.79
2016-08-31T08:02:28.401Z,37.88
2016-08-31T08:03:28.391Z,38.07
2016-08-31T08:04:28.447Z,37.77
2016-08-31T08:05:30.753Z,37.79
2016-08-31T08:06:28.430Z,37.88
2016-08-31T08:07:29.301Z,37.98
2016-08-31T08:08:28.460Z,37.49
2016-08-31T08:09:28.405Z,37.98
2016-08-31T08:10:28.463Z,37.98
2016-08-31T08:11:29.209Z,37.69
2016-08-31T08:12:29.195Z,37.69
2016-08-31T08:13:29.218Z,37.69
2016-08-31T08:14:29.253Z,37.77
2016-08-31T08:15:28.539Z,37.69
2016-08-31T08:16:28.550Z,37.79
2016-08-31T08:17:29.276Z,37.69
2016-08-31T08:18:29.232Z,37.88
2016-08-31T08:19:29.190Z,37.79
2016-08-31T08:20:29.279Z,37.88
2016-08-31T08:21:29.207Z,37.98
2016-08-31T08:22:28.510Z,37.88
2016-08-31T08:23:29.220Z,37.88
2016-08-31T08:24:29.240Z,37.69
2016-08-31T08:25:28.529Z,37.79
2016-08-31T08:26:29.245Z,37.69
2016-08-31T08:27:29.252Z,37.87
2016-08-31T08:28:29.260Z,37.98
2016-08-31T08:29:29.617Z,38.15
2016-08-31T08:30:29.276Z,38.06
2016-08-31T08:31:30.353Z,37.69
2016-08-31T08:32:29.294Z,37.88
2016-08-31T08:33:29.789Z,37.67
2016-08-31T08:34:28.602Z,37.69
2016-08-31T08:35:28.658Z,37.21
2016-08-31T08:36:29.336Z,36.82
2016-08-31T08:37:29.332Z,36.54
2016-08-31T08:38:28.683Z,36.54
2016-08-31T08:39:29.349Z,35.49
2016-08-31T08:40:29.764Z,35.4
2016-08-31T08:41:28.657Z,35.49
2016-08-31T08:42:28.668Z,35.4
2016-08-31T08:43:29.380Z,35.21
2016-08-31T08:44:29.388Z,35.3
2016-08-31T08:45:29.398Z,35.3
2016-08-31T08:46:28.697Z,34.81
2016-08-31T08:47:28.706Z,34.91
2016-08-31T08:48:29.420Z,34.81
2016-08-31T08:49:29.426Z,34.91
2016-08-31T08:50:29.437Z,34.91
2016-08-31T08:51:28.737Z,35.01
2016-08-31T08:52:29.453Z,35.01
2016-08-31T08:53:29.877Z,35.21
2016-08-31T08:54:29.466Z,35.49
2016-08-31T08:55:28.769Z,36.56
2016-08-31T08:56:29.483Z,36.25
2016-08-31T08:57:28.791Z,36.44
2016-08-31T08:58:28.791Z,36.35
2016-08-31T08:59:29.506Z,35.67
2016-08-31T09:00:28.808Z,36.06
2016-08-31T09:01:28.815Z,36.16
2016-08-31T09:02:28.835Z,36.06
2016-08-31T09:03:29.538Z,35.96
2016-08-31T09:04:30.098Z,36.35
2016-08-31T09:05:28.848Z,36.44
2016-08-31T09:06:29.562Z,36.25
2016-08-31T09:07:28.865Z,35.96
2016-08-31T09:08:28.873Z,36.06
2016-08-31T09:09:29.589Z,35.67
2016-08-31T09:10:29.651Z,36.25
2016-08-31T09:11:29.605Z,35.48
2016-08-31T09:12:28.956Z,35.67
2016-08-31T09:13:29.625Z,35.86
2016-08-31T09:14:28.924Z,35.77
2016-08-31T09:15:29.829Z,36.35
2016-08-31T09:16:29.656Z,36.64
2016-08-31T09:17:28.946Z,36.64
2016-08-31T09:18:29.659Z,36.54
2016-08-31T09:19:29.667Z,36.06
2016-08-31T09:20:28.976Z,36.64
2016-08-31T09:21:28.983Z,36.64
2016-08-31T09:22:28.993Z,36.44
2016-08-31T09:23:29.702Z,36.54
2016-08-31T09:24:29.707Z,36.44
2016-08-31T09:25:29.012Z,36.44
2016-08-31T09:26:29.876Z,36.74
2016-08-31T09:27:29.735Z,36.54
2016-08-31T09:28:29.037Z,36.44
2016-08-31T09:29:29.749Z,36.35
2016-08-31T09:30:29.104Z,36.35
2016-08-31T09:31:29.767Z,35.96
2016-08-31T09:32:30.416Z,35.77
2016-08-31T09:33:29.075Z,36.52
2016-08-31T09:34:29.786Z,36.83
2016-08-31T09:35:29.800Z,36.25
2016-08-31T09:36:29.097Z,36.64
2016-08-31T09:37:30.212Z,36.35
2016-08-31T09:38:29.162Z,36.54
2016-08-31T09:39:30.782Z,36.46
2016-08-31T09:40:29.836Z,36.66
2016-08-31T09:41:29.135Z,36.54
2016-08-31T09:42:29.146Z,36.25
2016-08-31T09:43:29.151Z,36.46
2016-08-31T09:44:29.864Z,36.36
2016-08-31T09:45:29.875Z,36.66
2016-08-31T09:46:29.882Z,36.56
2016-08-31T09:47:29.891Z,36.56
2016-08-31T09:48:29.697Z,36.56
2016-08-31T09:49:29.909Z,36.54
2016-08-31T09:50:29.210Z,36.54
2016-08-31T09:51:29.215Z,36.83
2016-08-31T09:52:29.224Z,37.15
2016-08-31T09:53:29.989Z,36.85
2016-08-31T09:54:29.949Z,37.05
2016-08-31T09:55:30.012Z,36.83
2016-08-31T09:56:29.962Z,36.93
2016-08-31T09:57:29.973Z,37.03
2016-08-31T09:58:29.276Z,37.03
2016-08-31T09:59:29.482Z,36.93
2016-08-31T10:00:29.342Z,37.03
2016-08-31T10:01:30.776Z,36.93
2016-08-31T10:02:30.016Z,36.93
2016-08-31T10:03:30.073Z,36.83
2016-08-31T10:04:29.324Z,37.03
2016-08-31T10:05:30.092Z,37.32
2016-08-31T10:06:30.045Z,36.93
2016-08-31T10:07:29.399Z,36.83
2016-08-31T10:08:30.066Z,37.03
2016-08-31T10:09:30.071Z,36.93
2016-08-31T10:10:30.092Z,36.83
2016-08-31T10:11:30.139Z,37.03
2016-08-31T10:12:30.108Z,36.93
2016-08-31T10:13:29.449Z,36.83
2016-08-31T10:14:30.717Z,37.13
2016-08-31T10:15:29.619Z,37.05
2016-08-31T10:16:30.131Z,36.85
2016-08-31T10:17:30.141Z,37.24
2016-08-31T10:18:29.445Z,37.15
2016-08-31T10:19:29.451Z,36.85
2016-08-31T10:20:30.219Z,37.15
2016-08-31T10:21:30.172Z,36.85
2016-08-31T10:22:30.182Z,37.24
2016-08-31T10:23:31.045Z,37.15
2016-08-31T10:24:29.490Z,36.85
2016-08-31T10:25:30.508Z,37.34
2016-08-31T10:26:30.216Z,37.41
2016-08-31T10:27:29.523Z,37.24
2016-08-31T10:28:29.525Z,37.23
2016-08-31T10:29:30.241Z,37.13
2016-08-31T10:30:29.543Z,37.32
2016-08-31T10:31:30.259Z,37.41
2016-08-31T10:32:30.265Z,37.41
2016-08-31T10:33:30.274Z,37.51
2016-08-31T10:34:30.312Z,36.56
2016-08-31T10:35:29.592Z,37.24
2016-08-31T10:36:30.848Z,37.24
2016-08-31T10:37:29.602Z,37.51
2016-08-31T10:38:29.661Z,37.41
2016-08-31T10:39:29.616Z,37.53
2016-08-31T10:40:30.678Z,37.34
2016-08-31T10:41:29.688Z,37.63
2016-08-31T10:42:29.694Z,37.43
2016-08-31T10:43:30.357Z,37.34
2016-08-31T10:44:29.658Z,37.34
2016-08-31T10:45:31.146Z,37.53
2016-08-31T10:46:30.391Z,37.24
2016-08-31T10:47:30.648Z,37.43
2016-08-31T10:48:29.701Z,37.43
2016-08-31T10:49:30.411Z,37.53
2016-08-31T10:50:29.739Z,37.92
2016-08-31T10:51:29.787Z,37.92
2016-08-31T10:52:30.434Z,37.82
2016-08-31T10:53:29.734Z,37.73
2016-08-31T10:54:30.501Z,37.43
2016-08-31T10:55:29.760Z,37.34
2016-08-31T10:56:30.522Z,37.73
2016-08-31T10:57:30.477Z,37.92
2016-08-31T10:58:30.785Z,37.24
2016-08-31T10:59:30.494Z,36.56
2016-08-31T11:00:31.303Z,37.15
2016-08-31T11:01:29.802Z,37.05
2016-08-31T11:02:29.811Z,36.56
2016-08-31T11:03:30.525Z,36.25
2016-08-31T11:04:29.825Z,36.54
2016-08-31T11:05:30.539Z,36.83
2016-08-31T11:06:30.544Z,36.85
2016-08-31T11:07:30.555Z,36.95
2016-08-31T11:08:29.853Z,36.56
2016-08-31T11:09:30.663Z,37.73
2016-08-31T11:10:29.866Z,37.43
2016-08-31T11:11:30.582Z,36.56
2016-08-31T11:12:29.885Z,36.85
2016-08-31T11:13:29.993Z,37.63
2016-08-31T11:14:30.622Z,36.85
2016-08-31T11:15:30.610Z,36.85
2016-08-31T11:16:30.620Z,36.95
2016-08-31T11:17:29.919Z,36.56
2016-08-31T11:18:30.630Z,36.46
2016-08-31T11:19:29.932Z,36.36
2016-08-31T11:20:30.997Z,36.46
2016-08-31T11:21:30.652Z,36.56
2016-08-31T11:22:31.550Z,36.64
2016-08-31T11:23:30.665Z,36.85
2016-08-31T11:24:29.964Z,36.95
2016-08-31T11:25:30.782Z,36.95
2016-08-31T11:26:30.687Z,37.05
2016-08-31T11:27:29.985Z,37.05
2016-08-31T11:28:30.703Z,36.56
2016-08-31T11:29:30.005Z,37.03
2016-08-31T11:30:30.716Z,36.95
2016-08-31T11:31:30.919Z,36.56
2016-08-31T11:32:30.732Z,36.85
2016-08-31T11:33:31.864Z,36.66
2016-08-31T11:34:30.037Z,36.76
2016-08-31T11:35:30.754Z,36.95
2016-08-31T11:36:30.052Z,36.85
2016-08-31T11:37:30.058Z,37.24
2016-08-31T11:38:30.066Z,36.95
2016-08-31T11:39:30.127Z,36.56
2016-08-31T11:40:30.788Z,36.76
2016-08-31T11:41:30.089Z,36.64
2016-08-31T11:42:30.096Z,36.44
2016-08-31T11:43:30.863Z,36.54
2016-08-31T11:44:30.110Z,36.56
2016-08-31T11:45:30.826Z,36.54
2016-08-31T11:46:30.536Z,36.44
2016-08-31T11:47:30.129Z,36.54
2016-08-31T11:48:30.906Z,36.64
2016-08-31T11:49:30.852Z,36.85
2016-08-31T11:50:30.881Z,36.85
2016-08-31T11:51:30.871Z,36.56
2016-08-31T11:52:30.932Z,37.15
2016-08-31T11:53:30.182Z,36.18
2016-08-31T11:54:30.889Z,36.66
2016-08-31T11:55:30.191Z,35.88
2016-08-31T11:56:30.194Z,36.85
2016-08-31T11:57:30.503Z,37.53
2016-08-31T11:58:30.211Z,36.08
2016-08-31T11:59:30.925Z,36.27
2016-08-31T12:00:30.925Z,36.66
2016-08-31T12:01:30.233Z,36.93
2016-08-31T12:02:30.939Z,36.56
2016-08-31T12:03:30.956Z,36.76
2016-08-31T12:04:30.955Z,35.77
2016-08-31T12:05:30.960Z,35.67
2016-08-31T12:06:31.441Z,36.74
2016-08-31T12:07:30.971Z,36.83
2016-08-31T12:08:30.978Z,36.74
2016-08-31T12:09:30.276Z,36.56
2016-08-31T12:10:30.995Z,36.56
2016-08-31T12:11:30.290Z,36.54
2016-08-31T12:12:30.296Z,36.56
2016-08-31T12:13:31.056Z,37.05
2016-08-31T12:14:31.015Z,36.66
2016-08-31T12:15:31.021Z,36.36
2016-08-31T12:16:30.371Z,36.46
2016-08-31T12:17:31.853Z,37.05
2016-08-31T12:18:30.333Z,37.15
2016-08-31T12:19:31.098Z,36.85
2016-08-31T12:20:31.075Z,36.95
2016-08-31T12:21:31.062Z,37.05
2016-08-31T12:22:31.067Z,36.36
2016-08-31T12:23:30.368Z,36.56
2016-08-31T12:24:31.083Z,36.76
2016-08-31T12:25:30.383Z,35.78
2016-08-31T12:26:30.388Z,36.66
2016-08-31T12:27:32.645Z,35.78
2016-08-31T12:28:32.400Z,36.36
2016-08-31T12:29:31.113Z,36.76
2016-08-31T12:30:31.175Z,37.05
2016-08-31T12:31:30.423Z,36.46
2016-08-31T12:32:32.087Z,36.56
2016-08-31T12:33:30.436Z,36.85
2016-08-31T12:34:31.155Z,36.56
2016-08-31T12:35:31.156Z,36.56
2016-08-31T12:36:30.511Z,36.56
2016-08-31T12:37:31.226Z,36.46
2016-08-31T12:38:31.169Z,36.56
2016-08-31T12:39:30.524Z,36.56
2016-08-31T12:40:31.186Z,36.56
2016-08-31T12:41:30.504Z,37.05
2016-08-31T12:42:30.494Z,36.76
2016-08-31T12:43:32.310Z,36.76
2016-08-31T12:44:31.338Z,37.05
2016-08-31T12:45:30.513Z,36.18
2016-08-31T12:46:31.232Z,37.34
2016-08-31T12:47:31.241Z,36.77
2016-08-31T12:48:31.244Z,36.66
2016-08-31T12:49:31.249Z,36.18
2016-08-31T12:50:31.259Z,36.36
2016-08-31T12:51:30.560Z,36.56
2016-08-31T12:52:31.287Z,36.18
2016-08-31T12:53:31.280Z,36.36
2016-08-31T12:54:31.690Z,36.27